sensor_id;sensor_type;location;lat;lon;timestamp;pressure;altitude;pressure_sealevel;temperature;humidity
13604;BME280;24578;48.264;11.436;2023-02-22T00:01:02;96094.16;;;2.00;100.00
13604;BME280;24578;48.264;11.436;2023-02-22T00:04:09;96092.50;;;1.99;100.00
13604;BME280;24578;48.264;11.436;2023-02-22T00:07:10;96099.38;;;1.97;100.00
13604;BME280;24578;48.264;11.436;2023-02-22T00:10:12;96087.59;;;1.94;100.00
13604;BME280;24578;48.264;11.436;2023-02-22T00:13:13;96094.44;;;1.94;100.00
13604;BME280;24578;48.264;11.436;2023-02-22T00:16:16;96093.66;;;1.92;100.00
13604;BME280;24578;48.264;11.436;2023-02-22T00:19:17;96092.88;;;1.90;100.00
13604;BME280;24578;48.264;11.436;2023-02-22T00:22:18;96087.13;;;1.85;100.00
13604;BME280;24578;48.264;11.436;2023-02-22T00:25:21;96089.78;;;1.81;100.00
13604;BME280;24578;48.264;11.436;2023-02-22T00:28:22;96082.28;;;1.78;100.00
13604;BME280;24578;48.264;11.436;2023-02-22T00:31:25;96078.88;;;1.78;100.00
13604;BME280;24578;48.264;11.436;2023-02-22T00:34:26;96082.44;;;1.74;100.00
13604;BME280;24578;48.264;11.436;2023-02-22T00:37:26;96077.47;;;1.71;100.00
13604;BME280;24578;48.264;11.436;2023-02-22T00:40:33;96072.47;;;1.67;100.00
13604;BME280;24578;48.264;11.436;2023-02-22T00:43:34;96075.06;;;1.66;100.00
13604;BME280;24578;48.264;11.436;2023-02-22T00:46:35;96075.25;;;1.61;100.00
13604;BME280;24578;48.264;11.436;2023-02-22T00:49:36;96080.56;;;1.57;100.00
13604;BME280;24578;48.264;11.436;2023-02-22T00:52:37;96086.53;;;1.56;100.00
13604;BME280;24578;48.264;11.436;2023-02-22T00:55:38;96081.56;;;1.52;100.00
13604;BME280;24578;48.264;11.436;2023-02-22T00:58:38;96078.22;;;1.50;100.00
13604;BME280;24578;48.264;11.436;2023-02-22T01:01:39;96077.59;;;1.45;100.00
13604;BME280;24578;48.264;11.436;2023-02-22T01:04:42;96084.47;;;1.43;100.00
13604;BME280;24578;48.264;11.436;2023-02-22T01:07:43;96080.28;;;1.41;100.00
13604;BME280;24578;48.264;11.436;2023-02-22T01:10:44;96083.81;;;1.38;100.00
13604;BME280;24578;48.264;11.436;2023-02-22T01:13:44;96073.72;;;1.35;100.00
13604;BME280;24578;48.264;11.436;2023-02-22T01:16:45;96072.94;;;1.33;100.00
13604;BME280;24578;48.264;11.436;2023-02-22T01:19:45;96071.41;;;1.29;100.00
13604;BME280;24578;48.264;11.436;2023-02-22T01:22:48;96069.78;;;1.26;100.00
13604;BME280;24578;48.264;11.436;2023-02-22T01:25:49;96054.75;;;1.20;100.00
13604;BME280;24578;48.264;11.436;2023-02-22T01:28:49;96060.75;;;1.17;100.00
13604;BME280;24578;48.264;11.436;2023-02-22T01:31:52;96061.72;;;1.15;100.00
13604;BME280;24578;48.264;11.436;2023-02-22T01:34:53;96065.13;;;1.15;100.00
13604;BME280;24578;48.264;11.436;2023-02-22T01:37:54;96054.94;;;1.14;100.00
13604;BME280;24578;48.264;11.436;2023-02-22T01:40:55;96057.47;;;1.15;100.00
13604;BME280;24578;48.264;11.436;2023-02-22T01:43:56;96048.19;;;1.13;100.00
13604;BME280;24578;48.264;11.436;2023-02-22T01:46:59;96047.31;;;1.14;100.00
13604;BME280;24578;48.264;11.436;2023-02-22T01:50:00;96049.03;;;1.13;100.00
13604;BME280;24578;48.264;11.436;2023-02-22T01:53:02;96052.59;;;1.09;100.00
13604;BME280;24578;48.264;11.436;2023-02-22T01:56:05;96035.63;;;1.08;100.00
13604;BME280;24578;48.264;11.436;2023-02-22T01:59:11;96050.81;;;1.11;100.00
13604;BME280;24578;48.264;11.436;2023-02-22T02:02:13;96055.13;;;1.09;100.00
13604;BME280;24578;48.264;11.436;2023-02-22T02:05:14;96041.56;;;1.09;100.00
13604;BME280;24578;48.264;11.436;2023-02-22T02:11:28;96034.22;;;1.01;100.00
13604;BME280;24578;48.264;11.436;2023-02-22T02:14:28;96025.81;;;0.97;100.00
13604;BME280;24578;48.264;11.436;2023-02-22T02:17:31;96019.91;;;0.97;100.00
13604;BME280;24578;48.264;11.436;2023-02-22T02:24:44;96013.47;;;0.86;100.00
13604;BME280;24578;48.264;11.436;2023-02-22T02:34:57;96004.31;;;0.82;100.00
13604;BME280;24578;48.264;11.436;2023-02-22T02:38:09;96000.97;;;0.80;100.00
13604;BME280;24578;48.264;11.436;2023-02-22T02:41:18;96012.72;;;0.84;100.00
13604;BME280;24578;48.264;11.436;2023-02-22T02:44:30;96005.19;;;0.81;100.00
13604;BME280;24578;48.264;11.436;2023-02-22T02:47:39;96002.28;;;0.90;100.00
13604;BME280;24578;48.264;11.436;2023-02-22T02:50:47;95993.81;;;0.90;100.00
13604;BME280;24578;48.264;11.436;2023-02-22T02:53:51;95987.78;;;0.93;100.00
13604;BME280;24578;48.264;11.436;2023-02-22T02:56:55;95983.53;;;0.93;100.00
13604;BME280;24578;48.264;11.436;2023-02-22T02:59:56;95985.22;;;0.93;100.00
13604;BME280;24578;48.264;11.436;2023-02-22T03:03:14;95976.75;;;0.92;100.00
13604;BME280;24578;48.264;11.436;2023-02-22T03:10:12;95982.66;;;0.93;100.00
13604;BME280;24578;48.264;11.436;2023-02-22T03:16:48;95975.81;;;0.95;100.00
13604;BME280;24578;48.264;11.436;2023-02-22T03:20:12;95978.34;;;0.95;100.00
13604;BME280;24578;48.264;11.436;2023-02-22T03:23:31;95961.41;;;0.94;100.00
13604;BME280;24578;48.264;11.436;2023-02-22T03:26:55;95968.25;;;0.91;100.00
13604;BME280;24578;48.264;11.436;2023-02-22T03:30:05;95986.88;;;0.94;100.00
13604;BME280;24578;48.264;11.436;2023-02-22T03:33:24;95990.44;;;0.89;100.00
13604;BME280;24578;48.264;11.436;2023-02-22T03:36:38;95998.16;;;0.88;100.00
13604;BME280;24578;48.264;11.436;2023-02-22T03:39:42;95990.53;;;0.86;100.00
13604;BME280;24578;48.264;11.436;2023-02-22T03:42:53;96000.03;;;0.83;100.00
13604;BME280;24578;48.264;11.436;2023-02-22T03:45:57;95999.81;;;0.89;100.00
13604;BME280;24578;48.264;11.436;2023-02-22T03:52:07;96002.53;;;0.84;100.00
13604;BME280;24578;48.264;11.436;2023-02-22T03:55:10;96004.06;;;0.88;100.00
13604;BME280;24578;48.264;11.436;2023-02-22T03:58:13;95993.75;;;0.91;100.00
13604;BME280;24578;48.264;11.436;2023-02-22T04:01:15;95984.25;;;0.95;100.00
13604;BME280;24578;48.264;11.436;2023-02-22T04:04:16;95996.25;;;0.93;100.00
13604;BME280;24578;48.264;11.436;2023-02-22T04:07:17;95990.53;;;0.86;100.00
13604;BME280;24578;48.264;11.436;2023-02-22T04:10:19;95988.25;;;0.80;100.00
13604;BME280;24578;48.264;11.436;2023-02-22T04:13:19;95989.06;;;0.81;100.00
13604;BME280;24578;48.264;11.436;2023-02-22T04:16:20;95985.78;;;0.77;100.00
13604;BME280;24578;48.264;11.436;2023-02-22T04:19:21;95983.13;;;0.80;100.00
13604;BME280;24578;48.264;11.436;2023-02-22T04:22:21;95986.56;;;0.79;100.00
13604;BME280;24578;48.264;11.436;2023-02-22T04:25:23;95994.22;;;0.79;100.00
13604;BME280;24578;48.264;11.436;2023-02-22T04:28:23;95989.22;;;0.76;100.00
13604;BME280;24578;48.264;11.436;2023-02-22T04:31:24;95984.19;;;0.74;100.00
13604;BME280;24578;48.264;11.436;2023-02-22T04:34:24;95994.44;;;0.73;100.00
13604;BME280;24578;48.264;11.436;2023-02-22T04:37:25;95990.28;;;0.70;100.00
13604;BME280;24578;48.264;11.436;2023-02-22T04:40:25;95984.53;;;0.65;100.00
13604;BME280;24578;48.264;11.436;2023-02-22T04:43:26;95976.16;;;0.62;100.00
13604;BME280;24578;48.264;11.436;2023-02-22T04:46:27;95978.03;;;0.56;100.00
13604;BME280;24578;48.264;11.436;2023-02-22T04:49:27;95984.09;;;0.54;100.00
13604;BME280;24578;48.264;11.436;2023-02-22T04:52:28;95975.63;;;0.53;100.00
13604;BME280;24578;48.264;11.436;2023-02-22T04:55:28;95974.00;;;0.51;100.00
13604;BME280;24578;48.264;11.436;2023-02-22T04:58:29;95964.78;;;0.48;100.00
13604;BME280;24578;48.264;11.436;2023-02-22T05:01:33;95973.41;;;0.44;100.00
13604;BME280;24578;48.264;11.436;2023-02-22T05:04:34;95955.66;;;0.42;100.00
13604;BME280;24578;48.264;11.436;2023-02-22T05:07:39;95967.53;;;0.42;100.00
13604;BME280;24578;48.264;11.436;2023-02-22T05:10:39;95971.09;;;0.38;100.00
13604;BME280;24578;48.264;11.436;2023-02-22T05:13:40;95961.13;;;0.32;100.00
13604;BME280;24578;48.264;11.436;2023-02-22T05:16:41;95962.78;;;0.33;100.00
13604;BME280;24578;48.264;11.436;2023-02-22T05:19:42;95954.44;;;0.29;100.00
13604;BME280;24578;48.264;11.436;2023-02-22T05:22:42;95946.19;;;0.22;100.00
13604;BME280;24578;48.264;11.436;2023-02-22T05:25:43;95944.53;;;0.21;100.00
13604;BME280;24578;48.264;11.436;2023-02-22T05:28:45;95941.13;;;0.21;100.00
13604;BME280;24578;48.264;11.436;2023-02-22T05:31:45;95951.38;;;0.19;100.00
13604;BME280;24578;48.264;11.436;2023-02-22T05:34:46;95926.91;;;0.15;100.00
13604;BME280;24578;48.264;11.436;2023-02-22T05:37:46;95939.75;;;0.12;100.00
13604;BME280;24578;48.264;11.436;2023-02-22T05:40:47;95937.28;;;0.09;100.00
13604;BME280;24578;48.264;11.436;2023-02-22T05:43:48;95928.06;;;0.06;100.00
13604;BME280;24578;48.264;11.436;2023-02-22T05:46:48;95928.06;;;0.06;100.00
13604;BME280;24578;48.264;11.436;2023-02-22T05:49:49;95932.38;;;0.04;100.00
13604;BME280;24578;48.264;11.436;2023-02-22T05:52:50;95941.66;;;0.05;100.00
13604;BME280;24578;48.264;11.436;2023-02-22T05:55:51;95940.69;;;0.09;100.00
13604;BME280;24578;48.264;11.436;2023-02-22T05:58:52;95931.22;;;0.13;100.00
13604;BME280;24578;48.264;11.436;2023-02-22T06:01:52;95933.66;;;0.16;100.00
13604;BME280;24578;48.264;11.436;2023-02-22T06:04:53;95927.69;;;0.17;100.00
13604;BME280;24578;48.264;11.436;2023-02-22T06:07:55;95936.03;;;0.21;100.00
13604;BME280;24578;48.264;11.436;2023-02-22T06:10:55;95943.63;;;0.22;100.00
13604;BME280;24578;48.264;11.436;2023-02-22T06:13:56;95946.22;;;0.21;100.00
13604;BME280;24578;48.264;11.436;2023-02-22T06:16:57;95936.75;;;0.24;100.00
13604;BME280;24578;48.264;11.436;2023-02-22T06:19:58;95947.69;;;0.28;100.00
13604;BME280;24578;48.264;11.436;2023-02-22T06:22:58;95944.00;;;0.35;100.00
13604;BME280;24578;48.264;11.436;2023-02-22T06:25:59;95952.16;;;0.45;100.00
13604;BME280;24578;48.264;11.436;2023-02-22T06:28:59;95940.00;;;0.52;100.00
13604;BME280;24578;48.264;11.436;2023-02-22T06:32:01;95956.50;;;0.65;100.00
13604;BME280;24578;48.264;11.436;2023-02-22T06:35:02;95947.56;;;0.77;100.00
13604;BME280;24578;48.264;11.436;2023-02-22T06:38:03;95943.78;;;0.87;100.00
13604;BME280;24578;48.264;11.436;2023-02-22T06:41:05;95961.75;;;1.06;100.00
13604;BME280;24578;48.264;11.436;2023-02-22T06:44:08;95952.47;;;1.26;100.00
13604;BME280;24578;48.264;11.436;2023-02-22T06:47:10;95952.31;;;1.51;100.00
13604;BME280;24578;48.264;11.436;2023-02-22T06:50:22;95955.59;;;2.17;100.00
13604;BME280;24578;48.264;11.436;2023-02-22T06:53:23;95951.44;;;3.10;100.00
13604;BME280;24578;48.264;11.436;2023-02-22T06:56:23;95949.44;;;3.34;100.00
13604;BME280;24578;48.264;11.436;2023-02-22T06:59:24;95963.28;;;3.30;100.00
13604;BME280;24578;48.264;11.436;2023-02-22T07:02:25;95960.13;;;3.43;100.00
13604;BME280;24578;48.264;11.436;2023-02-22T07:05:27;95951.25;;;3.50;100.00
13604;BME280;24578;48.264;11.436;2023-02-22T07:08:30;95959.81;;;3.66;100.00
13604;BME280;24578;48.264;11.436;2023-02-22T07:11:31;95965.69;;;3.86;100.00
13604;BME280;24578;48.264;11.436;2023-02-22T07:14:31;95967.78;;;4.13;100.00
13604;BME280;24578;48.264;11.436;2023-02-22T07:17:32;95967.34;;;4.38;100.00
13604;BME280;24578;48.264;11.436;2023-02-22T07:20:33;95960.34;;;4.58;100.00
13604;BME280;24578;48.264;11.436;2023-02-22T07:23:33;95963.44;;;4.81;100.00
13604;BME280;24578;48.264;11.436;2023-02-22T07:26:39;95967.06;;;4.93;100.00
13604;BME280;24578;48.264;11.436;2023-02-22T07:29:43;95964.75;;;5.20;100.00
13604;BME280;24578;48.264;11.436;2023-02-22T07:32:45;95964.53;;;5.55;100.00
13604;BME280;24578;48.264;11.436;2023-02-22T07:35:48;95965.69;;;5.80;100.00
13604;BME280;24578;48.264;11.436;2023-02-22T07:38:49;95957.59;;;6.02;100.00
13604;BME280;24578;48.264;11.436;2023-02-22T07:41:49;95961.59;;;6.51;100.00
13604;BME280;24578;48.264;11.436;2023-02-22T07:44:50;95961.91;;;7.16;100.00
13604;BME280;24578;48.264;11.436;2023-02-22T07:47:51;95956.88;;;8.47;100.00
13604;BME280;24578;48.264;11.436;2023-02-22T07:50:52;95944.38;;;10.46;100.00
13604;BME280;24578;48.264;11.436;2023-02-22T07:53:52;95932.81;;;12.77;100.00
13604;BME280;24578;48.264;11.436;2023-02-22T07:56:53;95918.91;;;14.25;89.88
13604;BME280;24578;48.264;11.436;2023-02-22T07:59:53;95927.09;;;15.06;77.59
13604;BME280;24578;48.264;11.436;2023-02-22T08:02:55;95915.38;;;15.56;70.57
13604;BME280;24578;48.264;11.436;2023-02-22T08:05:57;95907.00;;;16.84;63.95
13604;BME280;24578;48.264;11.436;2023-02-22T08:08:59;95896.53;;;18.26;49.41
13604;BME280;24578;48.264;11.436;2023-02-22T08:12:00;95898.59;;;18.96;42.61
13604;BME280;24578;48.264;11.436;2023-02-22T08:15:02;95898.19;;;19.39;39.71
13604;BME280;24578;48.264;11.436;2023-02-22T08:18:09;95893.72;;;19.86;36.84
13604;BME280;24578;48.264;11.436;2023-02-22T08:21:09;95873.16;;;20.58;35.54
13604;BME280;24578;48.264;11.436;2023-02-22T08:24:10;95871.25;;;21.18;31.92
13604;BME280;24578;48.264;11.436;2023-02-22T08:27:11;95877.53;;;21.39;30.60
13604;BME280;24578;48.264;11.436;2023-02-22T08:30:21;95873.16;;;21.96;29.45
13604;BME280;24578;48.264;11.436;2023-02-22T08:33:22;95863.84;;;22.22;28.67
13604;BME280;24578;48.264;11.436;2023-02-22T08:36:22;95867.34;;;22.36;27.87
13604;BME280;24578;48.264;11.436;2023-02-22T08:39:23;95869.03;;;22.44;26.98
13604;BME280;24578;48.264;11.436;2023-02-22T08:42:23;95870.44;;;22.40;27.96
13604;BME280;24578;48.264;11.436;2023-02-22T08:45:24;95869.28;;;22.49;27.42
13604;BME280;24578;48.264;11.436;2023-02-22T08:48:25;95865.91;;;22.62;27.25
13604;BME280;24578;48.264;11.436;2023-02-22T08:51:26;95857.28;;;22.88;27.09
13604;BME280;24578;48.264;11.436;2023-02-22T08:54:26;95860.91;;;22.80;26.67
13604;BME280;24578;48.264;11.436;2023-02-22T08:57:27;95860.16;;;23.00;26.44
13604;BME280;24578;48.264;11.436;2023-02-22T09:00:29;95865.50;;;23.20;25.66
13604;BME280;24578;48.264;11.436;2023-02-22T09:03:32;95854.81;;;23.96;25.13
13604;BME280;24578;48.264;11.436;2023-02-22T09:06:32;95853.00;;;23.96;24.42
13604;BME280;24578;48.264;11.436;2023-02-22T09:09:33;95851.97;;;24.11;24.42
13604;BME280;24578;48.264;11.436;2023-02-22T09:12:33;95846.47;;;23.72;24.67
13604;BME280;24578;48.264;11.436;2023-02-22T09:15:34;95857.44;;;23.49;25.57
13604;BME280;24578;48.264;11.436;2023-02-22T09:18:39;95849.28;;;23.44;24.71
13604;BME280;24578;48.264;11.436;2023-02-22T09:21:39;95851.13;;;23.50;25.33
13604;BME280;24578;48.264;11.436;2023-02-22T09:24:40;95839.47;;;24.52;23.69
13604;BME280;24578;48.264;11.436;2023-02-22T09:27:43;95835.09;;;25.16;23.32
13604;BME280;24578;48.264;11.436;2023-02-22T09:30:46;95836.81;;;25.43;23.06
13604;BME280;24578;48.264;11.436;2023-02-22T09:33:47;95835.38;;;25.72;22.29
13604;BME280;24578;48.264;11.436;2023-02-22T09:36:48;95832.59;;;25.86;22.58
13604;BME280;24578;48.264;11.436;2023-02-22T09:39:49;95826.44;;;25.92;22.70
13604;BME280;24578;48.264;11.436;2023-02-22T09:49:37;95821.16;;;25.34;22.85
13604;BME280;24578;48.264;11.436;2023-02-22T09:52:54;95809.16;;;26.08;21.23
13604;BME280;24578;48.264;11.436;2023-02-22T09:56:10;95817.88;;;26.52;21.64
13604;BME280;24578;48.264;11.436;2023-02-22T09:59:20;95809.47;;;27.04;20.46
13604;BME280;24578;48.264;11.436;2023-02-22T10:02:30;95811.19;;;27.41;19.95
13604;BME280;24578;48.264;11.436;2023-02-22T10:05:39;95799.81;;;27.76;20.68
13604;BME280;24578;48.264;11.436;2023-02-22T10:08:42;95794.06;;;27.91;20.55
13604;BME280;24578;48.264;11.436;2023-02-22T10:12:01;95787.56;;;27.87;19.79
13604;BME280;24578;48.264;11.436;2023-02-22T10:15:43;95793.22;;;27.13;21.17
13604;BME280;24578;48.264;11.436;2023-02-22T10:19:10;95794.38;;;26.19;22.03
13604;BME280;24578;48.264;11.436;2023-02-22T10:25:44;95785.25;;;26.33;21.83
13604;BME280;24578;48.264;11.436;2023-02-22T10:29:01;95784.06;;;25.85;22.09
13604;BME280;24578;48.264;11.436;2023-02-22T10:32:04;95785.88;;;25.66;23.19
13604;BME280;24578;48.264;11.436;2023-02-22T10:35:26;95790.69;;;26.20;22.53
13604;BME280;24578;48.264;11.436;2023-02-22T10:38:31;95786.88;;;26.34;21.70
13604;BME280;24578;48.264;11.436;2023-02-22T10:41:37;95781.06;;;26.74;21.97
13604;BME280;24578;48.264;11.436;2023-02-22T10:44:40;95781.38;;;26.85;21.08
13604;BME280;24578;48.264;11.436;2023-02-22T10:47:41;95775.91;;;25.87;22.48
13604;BME280;24578;48.264;11.436;2023-02-22T10:50:43;95777.34;;;25.32;22.83
13604;BME280;24578;48.264;11.436;2023-02-22T10:53:56;95777.53;;;25.37;23.15
13604;BME280;24578;48.264;11.436;2023-02-22T10:56:59;95774.44;;;25.15;23.59
13604;BME280;24578;48.264;11.436;2023-02-22T11:00:22;95776.47;;;24.28;24.47
13604;BME280;24578;48.264;11.436;2023-02-22T11:03:28;95772.66;;;24.63;24.15
13604;BME280;24578;48.264;11.436;2023-02-22T11:06:31;95769.44;;;23.82;25.22
13604;BME280;24578;48.264;11.436;2023-02-22T11:09:46;95766.22;;;23.53;25.50
13604;BME280;24578;48.264;11.436;2023-02-22T11:12:49;95769.44;;;23.08;26.67
13604;BME280;24578;48.264;11.436;2023-02-22T11:15:54;95764.41;;;23.33;25.95
13604;BME280;24578;48.264;11.436;2023-02-22T11:19:26;95757.66;;;23.78;25.24
13604;BME280;24578;48.264;11.436;2023-02-22T11:22:37;95754.34;;;24.16;25.74
13604;BME280;24578;48.264;11.436;2023-02-22T11:25:41;95743.00;;;23.95;25.70
13604;BME280;24578;48.264;11.436;2023-02-22T11:28:49;95732.69;;;23.00;26.66
13604;BME280;24578;48.264;11.436;2023-02-22T11:31:51;95739.63;;;22.39;28.17
13604;BME280;24578;48.264;11.436;2023-02-22T11:35:16;95744.13;;;21.68;28.59
13604;BME280;24578;48.264;11.436;2023-02-22T11:38:21;95734.78;;;21.15;30.02
13604;BME280;24578;48.264;11.436;2023-02-22T11:41:28;95730.53;;;21.14;30.86
13604;BME280;24578;48.264;11.436;2023-02-22T11:44:31;95724.09;;;21.17;30.19
13604;BME280;24578;48.264;11.436;2023-02-22T11:47:32;95727.91;;;21.64;29.18
13604;BME280;24578;48.264;11.436;2023-02-22T11:51:23;95723.06;;;22.03;28.38
13604;BME280;24578;48.264;11.436;2023-02-22T11:58:18;95705.97;;;22.41;28.54
13604;BME280;24578;48.264;11.436;2023-02-22T12:10:58;95689.66;;;23.39;27.73
13604;BME280;24578;48.264;11.436;2023-02-22T12:14:33;95685.97;;;22.80;28.15
13604;BME280;24578;48.264;11.436;2023-02-22T12:21:33;95683.03;;;22.41;29.27
13604;BME280;24578;48.264;11.436;2023-02-22T12:24:45;95687.38;;;22.56;28.54
13604;BME280;24578;48.264;11.436;2023-02-22T12:27:58;95676.19;;;22.54;28.22
13604;BME280;24578;48.264;11.436;2023-02-22T12:31:16;95680.38;;;22.34;27.40
13604;BME280;24578;48.264;11.436;2023-02-22T12:34:30;95673.41;;;22.82;27.94
13604;BME280;24578;48.264;11.436;2023-02-22T12:37:50;95665.69;;;23.41;27.10
13604;BME280;24578;48.264;11.436;2023-02-22T12:41:24;95664.25;;;23.52;26.82
13604;BME280;24578;48.264;11.436;2023-02-22T12:44:38;95666.84;;;23.72;26.34
13604;BME280;24578;48.264;11.436;2023-02-22T12:47:50;95669.41;;;23.92;26.47
13604;BME280;24578;48.264;11.436;2023-02-22T12:51:17;95659.94;;;23.64;26.60
13604;BME280;24578;48.264;11.436;2023-02-22T12:58:08;95658.38;;;22.83;27.27
13604;BME280;24578;48.264;11.436;2023-02-22T13:01:21;95654.31;;;22.93;27.89
13604;BME280;24578;48.264;11.436;2023-02-22T13:04:24;95645.78;;;22.98;28.46
13604;BME280;24578;48.264;11.436;2023-02-22T13:20:33;95641.22;;;20.19;32.48
13604;BME280;24578;48.264;11.436;2023-02-22T13:27:42;95644.53;;;19.01;34.92
13604;BME280;24578;48.264;11.436;2023-02-22T13:31:05;95634.44;;;18.90;35.40
13604;BME280;24578;48.264;11.436;2023-02-22T13:41:30;95637.25;;;18.65;36.96
13604;BME280;24578;48.264;11.436;2023-02-22T13:54:33;95636.72;;;18.69;37.08
13604;BME280;24578;48.264;11.436;2023-02-22T13:57:40;95633.25;;;18.31;37.42
13604;BME280;24578;48.264;11.436;2023-02-22T14:00:53;95633.28;;;17.99;38.56
13604;BME280;24578;48.264;11.436;2023-02-22T14:04:19;95633.13;;;17.92;38.97
13604;BME280;24578;48.264;11.436;2023-02-22T14:10:36;95621.97;;;17.99;38.97
13604;BME280;24578;48.264;11.436;2023-02-22T14:17:35;95629.53;;;17.93;38.86
13604;BME280;24578;48.264;11.436;2023-02-22T14:20:37;95625.22;;;18.09;38.10
13604;BME280;24578;48.264;11.436;2023-02-22T14:23:52;95626.78;;;18.18;38.15
13604;BME280;24578;48.264;11.436;2023-02-22T14:27:02;95629.25;;;17.80;39.86
13604;BME280;24578;48.264;11.436;2023-02-22T14:30:03;95631.19;;;17.46;39.54
13604;BME280;24578;48.264;11.436;2023-02-22T14:37:03;95634.72;;;16.56;41.34
13604;BME280;24578;48.264;11.436;2023-02-22T14:40:22;95637.47;;;16.38;41.58
13604;BME280;24578;48.264;11.436;2023-02-22T14:43:26;95636.38;;;16.57;40.15
13604;BME280;24578;48.264;11.436;2023-02-22T14:46:36;95631.13;;;16.40;40.08
13604;BME280;24578;48.264;11.436;2023-02-22T14:49:44;95635.78;;;15.95;40.92
13604;BME280;24578;48.264;11.436;2023-02-22T14:53:02;95637.94;;;15.74;40.02
13604;BME280;24578;48.264;11.436;2023-02-22T14:56:18;95633.53;;;15.66;40.13
13604;BME280;24578;48.264;11.436;2023-02-22T14:59:25;95639.53;;;15.58;41.62
13604;BME280;24578;48.264;11.436;2023-02-22T15:02:26;95637.25;;;15.55;41.99
13604;BME280;24578;48.264;11.436;2023-02-22T15:05:33;95642.13;;;15.58;41.04
13604;BME280;24578;48.264;11.436;2023-02-22T15:08:37;95636.59;;;15.53;41.73
13604;BME280;24578;48.264;11.436;2023-02-22T15:11:40;95635.09;;;15.50;40.93
13604;BME280;24578;48.264;11.436;2023-02-22T15:14:44;95637.00;;;15.40;41.44
13604;BME280;24578;48.264;11.436;2023-02-22T15:17:56;95642.09;;;15.50;41.36
13604;BME280;24578;48.264;11.436;2023-02-22T15:21:03;95638.47;;;15.43;41.84
13604;BME280;24578;48.264;11.436;2023-02-22T15:24:06;95631.69;;;15.15;42.75
13604;BME280;24578;48.264;11.436;2023-02-22T15:27:14;95633.75;;;15.12;42.59
13604;BME280;24578;48.264;11.436;2023-02-22T15:30:21;95637.56;;;14.91;44.01
13604;BME280;24578;48.264;11.436;2023-02-22T15:33:28;95636.88;;;14.89;43.75
13604;BME280;24578;48.264;11.436;2023-02-22T15:36:31;95636.50;;;14.84;44.05
13604;BME280;24578;48.264;11.436;2023-02-22T15:39:33;95639.38;;;14.72;44.90
13604;BME280;24578;48.264;11.436;2023-02-22T15:42:50;95643.38;;;14.67;44.78
13604;BME280;24578;48.264;11.436;2023-02-22T15:45:59;95634.16;;;14.54;44.24
13604;BME280;24578;48.264;11.436;2023-02-22T15:49:19;95629.81;;;14.45;44.47
13604;BME280;24578;48.264;11.436;2023-02-22T15:52:25;95634.69;;;14.40;45.01
13604;BME280;24578;48.264;11.436;2023-02-22T15:58:40;95634.44;;;14.15;45.47
13604;BME280;24578;48.264;11.436;2023-02-22T16:01:44;95636.75;;;14.00;45.74
13604;BME280;24578;48.264;11.436;2023-02-22T16:04:45;95644.84;;;13.97;45.87
13604;BME280;24578;48.264;11.436;2023-02-22T16:07:49;95651.75;;;13.60;47.35
13604;BME280;24578;48.264;11.436;2023-02-22T16:11:35;95655.78;;;13.45;48.06
13604;BME280;24578;48.264;11.436;2023-02-22T16:17:37;95662.38;;;13.29;47.61
13604;BME280;24578;48.264;11.436;2023-02-22T16:20:40;95652.28;;;13.16;49.00
13604;BME280;24578;48.264;11.436;2023-02-22T16:23:49;95658.72;;;13.02;49.14
13604;BME280;24578;48.264;11.436;2023-02-22T16:30:16;95659.22;;;12.68;50.43
13604;BME280;24578;48.264;11.436;2023-02-22T16:33:20;95665.47;;;12.56;52.12
13604;BME280;24578;48.264;11.436;2023-02-22T16:36:34;95664.25;;;12.30;53.58
13604;BME280;24578;48.264;11.436;2023-02-22T16:39:36;95667.25;;;12.06;55.06
13604;BME280;24578;48.264;11.436;2023-02-22T16:42:37;95666.47;;;11.84;56.44
13604;BME280;24578;48.264;11.436;2023-02-22T16:45:39;95675.31;;;11.72;57.61
13604;BME280;24578;48.264;11.436;2023-02-22T16:48:41;95673.34;;;11.54;58.99
13604;BME280;24578;48.264;11.436;2023-02-22T16:54:45;95678.78;;;11.20;61.05
13604;BME280;24578;48.264;11.436;2023-02-22T16:57:48;95678.66;;;11.01;63.09
13604;BME280;24578;48.264;11.436;2023-02-22T17:00:49;95675.03;;;10.82;64.46
13604;BME280;24578;48.264;11.436;2023-02-22T17:03:50;95683.91;;;10.68;66.42
13604;BME280;24578;48.264;11.436;2023-02-22T17:06:53;95686.22;;;10.50;67.33
13604;BME280;24578;48.264;11.436;2023-02-22T17:09:53;95682.72;;;10.40;68.53
13604;BME280;24578;48.264;11.436;2023-02-22T17:12:58;95684.16;;;10.21;70.28
13604;BME280;24578;48.264;11.436;2023-02-22T17:16:00;95684.31;;;10.08;71.50
13604;BME280;24578;48.264;11.436;2023-02-22T17:19:01;95695.97;;;9.91;73.45
13604;BME280;24578;48.264;11.436;2023-02-22T17:22:04;95697.06;;;9.77;75.14
13604;BME280;24578;48.264;11.436;2023-02-22T17:25:20;95702.84;;;9.69;75.73
13604;BME280;24578;48.264;11.436;2023-02-22T17:28:23;95704.00;;;9.54;77.77
13604;BME280;24578;48.264;11.436;2023-02-22T17:31:28;95712.00;;;9.39;81.15
13604;BME280;24578;48.264;11.436;2023-02-22T17:34:29;95712.81;;;9.28;82.62
13604;BME280;24578;48.264;11.436;2023-02-22T17:37:31;95711.72;;;9.20;84.42
13604;BME280;24578;48.264;11.436;2023-02-22T17:40:34;95711.47;;;9.11;84.98
13604;BME280;24578;48.264;11.436;2023-02-22T17:43:35;95714.97;;;8.99;86.17
13604;BME280;24578;48.264;11.436;2023-02-22T17:46:36;95717.31;;;8.91;88.64
13604;BME280;24578;48.264;11.436;2023-02-22T17:49:40;95708.69;;;8.79;89.86
13604;BME280;24578;48.264;11.436;2023-02-22T17:52:41;95707.63;;;8.70;91.08
13604;BME280;24578;48.264;11.436;2023-02-22T17:55:42;95714.59;;;8.57;92.55
13604;BME280;24578;48.264;11.436;2023-02-22T17:58:45;95720.50;;;8.46;94.57
13604;BME280;24578;48.264;11.436;2023-02-22T18:01:45;95713.09;;;8.41;95.59